Savannah, Minnesota
Current Conditions -  °F | °C
As of 7:35 PM on Thursday 27 Nov 2014 (Local Time) from KGPZ Reporting Station
Broken Clouds Broken Clouds  
Wind Chill: -8°   Ceiling: 12000
Heat Index:   Visibility: 10mi
Dew Point: -6°   Wind: 6mph
Humidity: 66%   Direction: 160°SSE
Pressure: 30.23"   Gusts: NA
Location:  47.3121°N, 93.3823°W
Report Text: KGPZ 280135Z AUTO 16005KT 10SM BKN120 M16/M21 A3023 RMK AO1
Loading
Personal Weather Stations






























Interactive Weather Map New forecast layout! Learn more

10-Day Weather Forecast

Advertisements
Track Severe Weather on mobile